Time;durP1;ratioP1;P1;durP2;ratioP2;P2;SDS_P1;SDS_P2;PMS_P1;PMS_P2;Temp;Humidity;BMP_temperature;BMP_pressure;BME280_temperature;BME280_humidity;BME280_pressure;Samples;Min_cycle;Max_cycle;Signal;HPM_P1;HPM_P2
2022/12/11 00:00:37;;;;;;;;;;;-0.70;99.90;;;-2.23;100.00;94814.22;10505736;28;2646;-67
2022/12/11 00:05:41;;;;;;;;;;;-1.10;99.90;;;-2.32;100.00;94822.59;10514338;28;2573;-66
2022/12/11 00:10:43;;;;;;;;;;;-1.10;99.90;;;-2.32;100.00;94828.66;10510516;28;2594;-66
2022/12/11 00:15:46;;;;;;;;;;;-1.20;99.90;;;-2.34;100.00;94825.44;10507651;28;2622;-67
2022/12/11 00:20:49;;;;;;;;;;;-1.20;99.90;;;-2.34;100.00;94828.06;10514485;28;2638;-69
2022/12/11 00:25:52;;;;;;;;;;;-1.20;99.90;;;-2.35;100.00;94828.28;10522913;28;2670;-66
2022/12/11 00:30:55;;;;;;;;;;;-1.20;99.90;;;-2.39;100.00;94827.09;10494902;28;2656;-67
2022/12/11 00:35:58;;;;;;;;;;;-1.20;99.90;;;-2.44;100.00;94825.13;10509224;28;2966;-67
2022/12/11 00:41:00;;;;;;;;;;;-1.30;99.90;;;-2.54;100.00;94820.34;10510492;28;2108;-69
2022/12/11 00:46:03;;;;;;;;;;;-1.40;99.90;;;-2.54;100.00;94827.44;10510388;28;2544;-66
2022/12/11 00:51:05;;;;;;;;;;;-1.40;99.90;;;-2.65;100.00;94822.88;10512006;28;2013;-65
2022/12/11 00:56:08;;;;;;;;;;;-1.50;99.90;;;-2.69;100.00;94821.69;10508208;28;2885;-68
2022/12/11 01:01:13;;;;;;;;;;;-0.80;99.90;;;-2.62;100.00;94822.44;10514886;28;2615;-66
2022/12/11 01:06:16;;;;;;;;;;;-1.50;99.90;;;-2.61;100.00;94829.28;10516628;28;2603;-65
2022/12/11 01:11:25;;;;;;;;;;;-1.50;99.90;;;-2.59;100.00;94837.81;10510909;28;2618;-66
2022/12/11 01:16:27;;;;;;;;;;;-1.50;99.90;;;-2.57;100.00;94838.38;10507837;28;2557;-66
2022/12/11 01:21:30;;;;;;;;;;;-1.50;99.90;;;-2.50;100.00;94841.75;10503905;28;2693;-65
2022/12/11 01:26:33;;;;;;;;;;;-1.40;99.90;;;-2.48;100.00;94851.06;10517924;28;2686;-65
2022/12/11 01:31:38;;;;;;;;;;;-1.40;99.90;;;-2.47;100.00;94854.50;10496983;28;2636;-66
2022/12/11 01:36:41;;;;;;;;;;;-1.40;99.90;;;-2.41;100.00;94860.75;10499319;28;2104;-65
2022/12/11 01:41:43;;;;;;;;;;;-1.30;99.90;;;-2.34;100.00;94867.56;10510990;28;2548;-65
2022/12/11 01:46:46;;;;;;;;;;;-1.30;99.90;;;-2.34;100.00;94872.03;10503752;28;2097;-66
2022/12/11 01:51:49;;;;;;;;;;;-1.30;99.90;;;-2.37;100.00;94867.97;10503466;28;2553;-67
2022/12/11 01:56:52;;;;;;;;;;;-1.30;99.90;;;-2.33;100.00;94869.16;10510618;28;2660;-64
2022/12/11 02:01:55;;;;;;;;;;;-1.30;99.90;;;-2.33;100.00;94869.16;10501498;28;2589;-68
2022/12/11 02:06:58;;;;;;;;;;;-1.30;99.90;;;-2.26;100.00;94864.66;10509722;28;2573;-73
2022/12/11 02:12:01;;;;;;;;;;;-1.20;99.90;;;-2.19;100.00;94861.94;10499223;28;2936;-66
2022/12/11 02:17:04;;;;;;;;;;;-1.20;99.90;;;-2.36;100.00;94856.41;10503837;28;2607;-66
2022/12/11 02:22:06;;;;;;;;;;;-1.30;99.90;;;-2.33;100.00;94845.47;10506390;28;2080;-66
2022/12/11 02:27:09;;;;;;;;;;;-1.30;99.90;;;-2.31;100.00;94846.06;10513494;28;2543;-65
2022/12/11 02:32:12;;;;;;;;;;;-0.80;99.90;;;-2.23;100.00;94856.34;10510565;28;2013;-65
2022/12/11 02:37:15;;;;;;;;;;;-1.20;99.90;;;-2.23;100.00;94847.59;10504352;28;2556;-64
2022/12/11 02:42:17;;;;;;;;;;;-1.20;99.90;;;-2.24;100.00;94851.25;10512072;28;2049;-67
2022/12/11 02:47:20;;;;;;;;;;;-1.20;99.90;;;-2.26;100.00;94848.84;10500777;28;2539;-65
2022/12/11 02:52:23;;;;;;;;;;;-1.20;99.90;;;-2.31;100.00;94851.31;10507501;28;2583;-66
2022/12/11 02:57:26;;;;;;;;;;;-1.20;99.90;;;-2.33;100.00;94852.56;10496857;28;2620;-67
2022/12/11 03:02:29;;;;;;;;;;;-1.20;99.90;;;-2.39;100.00;94854.22;10506310;28;2566;-66
2022/12/11 03:07:32;;;;;;;;;;;-1.30;99.90;;;-2.41;100.00;94860.75;10508128;28;2069;-66
2022/12/11 03:12:34;;;;;;;;;;;-1.30;99.90;;;-2.49;100.00;94859.16;10498668;28;2622;-65
2022/12/11 03:17:37;;;;;;;;;;;-1.30;99.90;;;-2.50;100.00;94863.63;10502339;28;2554;-65
2022/12/11 03:22:40;;;;;;;;;;;-1.40;99.90;;;-2.44;100.00;94859.31;10502326;28;2590;-65
2022/12/11 03:27:43;;;;;;;;;;;-1.40;99.90;;;-2.53;100.00;94865.88;10500351;28;2559;-67
2022/12/11 03:32:46;;;;;;;;;;;-1.40;99.90;;;-2.49;100.00;94870.50;10500832;28;2682;-66
2022/12/11 03:37:48;;;;;;;;;;;-1.40;99.90;;;-2.47;100.00;94875.56;10492414;28;2523;-64
2022/12/11 03:42:51;;;;;;;;;;;-1.40;99.90;;;-2.46;100.00;94880.59;10496978;28;2040;-65
2022/12/11 03:47:54;;;;;;;;;;;-1.40;99.90;;;-2.43;100.00;94884.63;10509490;28;2560;-66
2022/12/11 03:52:57;;;;;;;;;;;-1.40;99.90;;;-2.53;100.00;94865.88;10501139;28;2827;-66
2022/12/11 03:58:00;;;;;;;;;;;-1.40;99.90;;;-2.48;100.00;94876.59;10510542;28;2054;-64
2022/12/11 04:03:12;;;;;;;;;;;-1.40;99.90;;;-2.53;100.00;94873.78;10506322;28;2662;-65
2022/12/11 04:08:16;;;;;;;;;;;-1.50;99.90;;;-2.72;100.00;94872.91;10512581;28;2651;-66
2022/12/11 04:13:18;;;;;;;;;;;-1.50;99.90;;;-2.78;100.00;94869.31;10509253;28;2756;-66
2022/12/11 04:29:02;;;;;;;;;;;-1.80;99.90;;;-3.29;100.00;94870.19;10516273;28;2717;-66
2022/12/11 04:34:05;;;;;;;;;;;-2.00;99.90;;;-3.13;100.00;94868.09;10511814;28;2163;-66
2022/12/11 04:39:09;;;;;;;;;;;-2.00;99.90;;;-3.14;100.00;94862.03;10506328;28;2622;-66
2022/12/11 04:44:12;;;;;;;;;;;-2.10;99.90;;;-3.02;100.00;94864.78;10511027;28;2565;-67
2022/12/11 04:49:15;;;;;;;;;;;-1.90;99.90;;;-3.01;100.00;94861.94;10509315;28;2675;-67
2022/12/11 04:54:18;;;;;;;;;;;-2.00;99.90;;;-3.02;100.00;94854.28;10507591;28;2645;-64
2022/12/11 04:59:20;;;;;;;;;;;-1.80;99.90;;;-2.98;100.00;94866.00;10506145;28;2013;-65
2022/12/11 05:04:23;;;;;;;;;;;-1.90;99.90;;;-3.01;100.00;94859.31;10512083;28;2764;-65
2022/12/11 05:09:26;;;;;;;;;;;-1.80;99.90;;;-3.02;100.00;94849.81;10515422;28;2687;-69
2022/12/11 05:14:30;;;;;;;;;;;-1.50;99.90;;;-3.02;100.00;94854.28;10508927;28;2146;-73
2022/12/11 05:19:43;;;;;;;;;;;-0.60;99.90;;;-3.04;100.00;94837.91;10505603;28;2013;-65
2022/12/11 05:24:49;;;;;;;;;;;-1.90;99.90;;;-3.02;100.00;94847.19;10506086;28;2648;-70
2022/12/11 05:29:53;;;;;;;;;;;-1.90;99.90;;;-3.09;100.00;94843.00;10499512;28;2610;-64
2022/12/11 05:35:01;;;;;;;;;;;-2.00;99.90;;;-3.12;100.00;94832.88;10513590;28;2620;-66
2022/12/11 05:40:05;;;;;;;;;;;-2.00;99.90;;;-3.12;100.00;94846.03;10509521;28;2655;-65
2022/12/11 05:45:08;;;;;;;;;;;-2.00;99.90;;;-3.08;100.00;94842.78;10496488;28;2933;-73
2022/12/11 05:50:11;;;;;;;;;;;-2.00;99.90;;;-3.09;100.00;94837.75;10510510;28;2095;-65
2022/12/11 05:55:14;;;;;;;;;;;-1.90;99.90;;;-3.17;100.00;94843.25;10509468;28;1986;-65
2022/12/11 06:00:17;;;;;;;;;;;-2.00;99.90;;;-3.16;100.00;94842.22;10511434;28;2662;-69
2022/12/11 06:05:19;;;;;;;;;;;-2.00;99.90;;;-3.10;100.00;94841.41;10516755;28;2656;-66
2022/12/11 06:10:22;;;;;;;;;;;-2.00;99.90;;;-3.07;100.00;94836.50;10506792;28;2581;-65
2022/12/11 06:15:25;;;;;;;;;;;-2.00;99.90;;;-2.98;100.00;94833.63;10506792;28;2567;-67
2022/12/11 06:20:30;;;;;;;;;;;-1.90;99.90;;;-2.98;100.00;94837.06;10511014;28;2626;-65
2022/12/11 06:25:32;;;;;;;;;;;-1.90;99.90;;;-3.01;100.00;94840.09;10513294;28;2749;-65
2022/12/11 06:30:35;;;;;;;;;;;-1.90;99.90;;;-3.00;100.00;94831.19;10499194;28;2637;-68
2022/12/11 06:35:41;;;;;;;;;;;-1.90;99.90;;;-2.95;100.00;94838.47;10503195;28;2082;-69
2022/12/11 06:40:44;;;;;;;;;;;-1.80;99.90;;;-2.92;100.00;94841.47;10507212;28;2620;-66
2022/12/11 06:45:47;;;;;;;;;;;-1.80;99.90;;;-2.84;100.00;94840.41;10506637;28;2633;-65
2022/12/11 06:50:49;;;;;;;;;;;-1.80;99.90;;;-2.92;100.00;94844.13;10497170;28;1975;-69
2022/12/11 06:55:53;;;;;;;;;;;-1.80;99.90;;;-2.83;100.00;94844.66;10490893;28;2944;-66
2022/12/11 07:00:55;;;;;;;;;;;-1.80;99.90;;;-2.82;100.00;94830.47;10503367;28;2708;-66
2022/12/11 07:05:58;;;;;;;;;;;-1.80;99.90;;;-2.81;100.00;94835.50;10505620;28;2693;-67
2022/12/11 07:11:01;;;;;;;;;;;-1.70;99.90;;;-2.77;100.00;94841.16;10509859;28;2710;-64
2022/12/11 07:16:09;;;;;;;;;;;-1.70;99.90;;;-2.67;100.00;94851.19;10506334;28;2055;-65
2022/12/11 07:21:16;;;;;;;;;;;-1.10;99.90;;;-2.63;100.00;94853.19;10512805;28;2565;-67
2022/12/11 07:26:18;;;;;;;;;;;-1.60;99.90;;;-2.53;100.00;94858.00;10511278;28;2181;-66
2022/12/11 07:31:21;;;;;;;;;;;-1.50;99.90;;;-2.50;100.00;94862.81;10504640;28;2643;-67
2022/12/11 07:36:24;;;;;;;;;;;-1.40;99.90;;;-2.52;100.00;94863.03;10512377;28;2053;-72
2022/12/11 07:41:27;;;;;;;;;;;-1.40;99.90;;;-2.41;100.00;94866.00;10508678;28;2537;-67
2022/12/11 07:46:35;;;;;;;;;;;-1.40;99.90;;;-2.29;100.00;94864.25;10511022;28;2589;-67
2022/12/11 07:51:39;;;;;;;;;;;-1.30;99.90;;;-2.15;100.00;94862.34;10501466;28;2735;-65
2022/12/11 07:56:42;;;;;;;;;;;-1.20;99.90;;;-2.17;100.00;94865.97;10504409;28;2619;-66
2022/12/11 08:01:45;;;;;;;;;;;-1.10;99.90;;;-2.05;100.00;94865.25;10518921;28;2690;-66
2022/12/11 08:06:48;;;;;;;;;;;-1.10;99.90;;;-2.03;100.00;94864.03;10523400;28;2556;-66
2022/12/11 08:11:51;;;;;;;;;;;-1.00;99.90;;;-1.87;100.00;94865.28;10516064;28;2064;-75
2022/12/11 08:16:54;;;;;;;;;;;-0.80;99.90;;;-1.80;100.00;94863.38;10515776;28;2793;-71
2022/12/11 08:21:57;;;;;;;;;;;-0.80;99.90;;;-1.57;100.00;94861.94;10514918;28;2092;-65
2022/12/11 08:26:59;;;;;;;;;;;-0.70;99.90;;;-1.45;100.00;94855.72;10507368;28;2192;-67
2022/12/11 08:32:02;;;;;;;;;;;-0.50;99.90;;;-1.32;100.00;94865.28;10510264;28;3007;-66
2022/12/11 08:37:13;;;;;;;;;;;-0.40;99.90;;;-1.39;100.00;94875.13;10509010;28;2014;-65
2022/12/11 08:42:26;;;;;;;;;;;-0.50;99.90;;;-1.43;100.00;94872.09;10504153;28;2574;-65
2022/12/11 08:47:28;;;;;;;;;;;-0.50;99.90;;;-1.50;100.00;94879.28;10513762;28;2606;-64
2022/12/11 08:52:31;;;;;;;;;;;-0.50;99.90;;;-1.66;100.00;94890.41;10510426;28;2632;-66
2022/12/11 08:57:34;;;;;;;;;;;-0.60;99.90;;;-1.61;100.00;94887.91;10508351;28;2623;-64
2022/12/11 09:02:37;;;;;;;;;;;-0.30;99.90;;;-0.96;100.00;94882.06;10506346;28;2133;-64
2022/12/11 09:07:39;;;;;;;;;;;-0.30;99.90;;;-0.99;100.00;94877.25;10507317;28;2629;-63
2022/12/11 09:12:42;;;;;;;;;;;-0.10;99.90;;;-1.03;100.00;94883.97;10507520;28;2560;-64
2022/12/11 09:17:45;;;;;;;;;;;0.00;99.90;;;-1.06;100.00;94876.53;10511825;28;2542;-64
2022/12/11 09:22:57;;;;;;;;;;;-0.10;99.90;;;-1.12;100.00;94875.59;10509401;28;2549;-65
2022/12/11 09:28:00;;;;;;;;;;;-0.20;99.90;;;-1.16;100.00;94874.41;10514312;28;2969;-65
2022/12/11 09:33:03;;;;;;;;;;;-0.20;99.90;;;-1.22;100.00;94872.66;10507222;28;2676;-66
2022/12/11 09:38:06;;;;;;;;;;;-0.30;99.90;;;-1.36;100.00;94866.75;10506345;28;2616;-67
2022/12/11 09:43:08;;;;;;;;;;;-0.30;99.90;;;-1.71;100.00;94871.81;10507862;28;2617;-64
2022/12/11 09:48:11;;;;;;;;;;;-0.50;99.90;;;-1.61;100.00;94866.03;10498640;28;2026;-64
2022/12/11 09:53:14;;;;;;;;;;;-0.60;99.90;;;-1.89;100.00;94856.81;10511439;28;2651;-65
2022/12/11 09:58:17;;;;;;;;;;;-0.70;99.90;;;-1.81;100.00;94860.97;10497348;28;2554;-67
2022/12/11 10:03:19;;;;;;;;;;;-0.80;99.90;;;-1.89;100.00;94854.16;10497321;28;2681;-70
2022/12/11 10:08:22;;;;;;;;;;;-0.90;99.90;;;-1.84;100.00;94851.69;10503755;28;2602;-68
2022/12/11 10:13:28;;;;;;;;;;;-0.90;99.90;;;-1.77;100.00;94852.44;10506304;28;2559;-67
2022/12/11 10:18:31;;;;;;;;;;;-0.90;99.90;;;-1.61;100.00;94844.94;10501151;28;2615;-65
2022/12/11 10:23:34;;;;;;;;;;;-0.70;99.90;;;-1.67;100.00;94836.88;10505794;28;2872;-66
2022/12/11 10:28:37;;;;;;;;;;;-0.70;99.90;;;-1.77;100.00;94827.91;10506809;28;2741;-65
2022/12/11 10:33:40;;;;;;;;;;;-0.60;99.90;;;-1.70;100.00;94824.16;10503240;28;2559;-74
2022/12/11 10:38:42;;;;;;;;;;;-0.70;99.90;;;-2.08;100.00;94823.56;10506050;28;2641;-66
2022/12/11 10:43:46;;;;;;;;;;;-0.80;99.90;;;-2.31;100.00;94825.00;10501726;28;2637;-65
2022/12/11 10:48:48;;;;;;;;;;;-1.10;99.90;;;-2.22;100.00;94813.19;10508413;28;2576;-66
2022/12/11 10:53:51;;;;;;;;;;;-1.20;99.90;;;-2.28;100.00;94819.31;10503694;28;2696;-66
2022/12/11 10:58:54;;;;;;;;;;;-1.20;99.90;;;-2.02;100.00;94814.81;10506300;28;2598;-65
2022/12/11 11:03:57;;;;;;;;;;;-1.10;99.90;;;-1.72;100.00;94801.69;10512228;28;2619;-64
2022/12/11 11:08:59;;;;;;;;;;;-0.90;99.90;;;-1.73;100.00;94797.44;10501164;28;1970;-65
2022/12/11 11:14:02;;;;;;;;;;;-0.80;99.90;;;-1.37;100.00;94788.69;10511370;28;2610;-70
2022/12/11 11:19:04;;;;;;;;;;;-0.50;99.90;;;-1.33;100.00;94779.31;10502276;28;2537;-71
2022/12/11 11:24:07;;;;;;;;;;;-0.40;99.90;;;-1.44;100.00;94772.16;10500462;28;2572;-65
2022/12/11 11:29:20;;;;;;;;;;;-0.40;99.90;;;-1.29;100.00;94759.38;10502115;28;2508;-64
2022/12/11 11:34:25;;;;;;;;;;;-0.30;99.90;;;-1.06;100.00;94757.84;10508026;28;2054;-64
2022/12/11 11:39:27;;;;;;;;;;;-0.30;99.90;;;-0.76;100.00;94750.69;10512199;28;2583;-69
2022/12/11 11:44:30;;;;;;;;;;;-0.10;99.90;;;-0.85;100.00;94752.03;10532320;28;2640;-72
2022/12/11 11:49:34;;;;;;;;;;;0.10;99.90;;;-1.18;100.00;94747.25;10512474;28;2601;-70
2022/12/11 11:54:37;;;;;;;;;;;-0.10;99.90;;;-1.44;100.00;94751.06;10507540;28;2094;-66
2022/12/11 11:59:41;;;;;;;;;;;-0.40;99.90;;;-1.24;100.00;94746.31;10504382;28;2585;-66
2022/12/11 12:04:44;;;;;;;;;;;-0.30;99.90;;;-0.99;100.00;94737.44;10513375;28;2592;-66
2022/12/11 12:09:47;;;;;;;;;;;-0.20;99.90;;;-0.87;100.00;94743.53;10507100;28;2077;-66
2022/12/11 12:14:50;;;;;;;;;;;-0.10;99.90;;;-1.03;100.00;94737.06;10503162;28;2605;-64
2022/12/11 12:19:54;;;;;;;;;;;0.00;99.90;;;-1.64;100.00;94738.97;10499222;28;2608;-63
2022/12/11 12:24:57;;;;;;;;;;;-0.40;99.90;;;-1.48;100.00;94724.34;10501028;28;2794;-66
2022/12/11 12:30:00;;;;;;;;;;;-0.60;99.90;;;-1.58;100.00;94724.09;10509060;28;2597;-67
2022/12/11 12:35:02;;;;;;;;;;;-0.70;99.90;;;-1.47;100.00;94735.69;10503282;28;2660;-65
2022/12/11 12:40:05;;;;;;;;;;;-0.70;99.90;;;-1.06;100.00;94732.25;10504924;28;2588;-65
2022/12/11 12:45:08;;;;;;;;;;;-0.40;99.90;;;-0.87;100.00;94725.06;10509763;28;2668;-64
2022/12/11 12:50:12;;;;;;;;;;;-0.10;99.90;;;-0.68;100.00;94723.13;10522091;28;2688;-66
2022/12/11 12:55:16;;;;;;;;;;;0.40;99.90;;;-0.69;100.00;94717.06;10511634;28;1997;-64
2022/12/11 13:00:19;;;;;;;;;;;0.10;99.90;;;-0.88;100.00;94720.84;10508241;28;2629;-65
2022/12/11 13:05:22;;;;;;;;;;;0.10;99.90;;;-1.00;100.00;94718.16;10512672;28;2676;-68
2022/12/11 13:10:24;;;;;;;;;;;0.00;99.90;;;-1.17;100.00;94714.56;10514851;28;2056;-65
2022/12/11 13:15:28;;;;;;;;;;;-0.10;99.90;;;-1.24;100.00;94725.22;10492069;28;2578;-64
2022/12/11 13:20:30;;;;;;;;;;;-0.30;99.90;;;-1.32;100.00;94722.91;10508150;28;2559;-66
2022/12/11 13:25:34;;;;;;;;;;;-0.40;99.90;;;-1.53;100.00;94713.66;10519615;28;2604;-65
2022/12/11 13:30:43;;;;;;;;;;;-0.40;99.90;;;-1.56;100.00;94721.22;10514498;28;2628;-65
2022/12/11 13:35:46;;;;;;;;;;;-0.60;99.90;;;-1.78;100.00;94724.38;10513275;28;2789;-67
2022/12/11 13:40:49;;;;;;;;;;;-0.60;99.90;;;-1.76;100.00;94732.84;10510290;28;2599;-64
2022/12/11 13:45:52;;;;;;;;;;;-0.70;99.90;;;-1.98;100.00;94727.22;10508818;28;2628;-64
2022/12/11 13:50:55;;;;;;;;;;;-0.80;99.90;;;-1.87;100.00;94728.31;10503585;28;2607;-69
2022/12/11 13:55:58;;;;;;;;;;;-0.80;99.90;;;-1.83;100.00;94718.94;10504330;28;2587;-66
2022/12/11 14:01:01;;;;;;;;;;;-0.80;99.90;;;-1.87;100.00;94725.69;10503189;28;2716;-64
2022/12/11 14:06:04;;;;;;;;;;;-0.80;99.90;;;-1.74;100.00;94727.34;10506249;28;2727;-64
2022/12/11 14:11:07;;;;;;;;;;;-0.80;99.90;;;-1.58;100.00;94736.47;10503689;28;2655;-66
2022/12/11 14:16:10;;;;;;;;;;;-0.60;99.90;;;-2.05;100.00;94731.75;10507105;28;2634;-67
2022/12/11 14:21:13;;;;;;;;;;;-0.80;99.90;;;-2.07;100.00;94736.47;10509686;28;2626;-75
2022/12/11 14:26:15;;;;;;;;;;;-1.00;99.90;;;-2.17;100.00;94729.06;10511192;28;2624;-65
2022/12/11 14:31:18;;;;;;;;;;;-1.00;99.90;;;-2.39;100.00;94737.63;10514493;28;2683;-65
2022/12/11 14:36:21;;;;;;;;;;;-1.10;99.90;;;-2.50;100.00;94744.41;10512481;28;2643;-65
2022/12/11 14:41:23;;;;;;;;;;;-1.20;99.90;;;-2.66;100.00;94743.16;10515980;28;2629;-66
2022/12/11 14:46:36;;;;;;;;;;;-1.30;99.90;;;-2.87;100.00;94749.59;10510793;28;2603;-66
2022/12/11 14:51:39;;;;;;;;;;;-1.60;99.90;;;-3.14;100.00;94746.34;10509578;28;2594;-65
2022/12/11 14:56:42;;;;;;;;;;;-1.80;99.90;;;-3.13;100.00;94752.41;10499906;28;2690;-65
2022/12/11 15:01:45;;;;;;;;;;;-1.90;99.90;;;-3.14;100.00;94761.34;10507773;28;2622;-65
2022/12/11 15:06:49;;;;;;;;;;;-1.90;99.90;;;-3.22;100.00;94753.72;10508512;28;2639;-67
2022/12/11 15:11:51;;;;;;;;;;;-2.00;99.90;;;-3.27;100.00;94755.16;10503242;28;2623;-64
2022/12/11 15:16:54;;;;;;;;;;;-2.00;99.90;;;-3.21;100.00;94756.13;10510240;28;2607;-66
2022/12/11 15:21:57;;;;;;;;;;;-2.00;99.90;;;-3.21;100.00;94755.31;10503646;28;2547;-66
2022/12/11 15:27:00;;;;;;;;;;;-2.00;99.90;;;-3.11;100.00;94750.41;10516956;28;1970;-65
2022/12/11 15:32:08;;;;;;;;;;;-1.90;99.90;;;-3.08;100.00;94750.75;10507393;28;2604;-72
2022/12/11 15:37:11;;;;;;;;;;;-1.80;99.90;;;-2.98;100.00;94745.03;10510608;28;2025;-68
2022/12/11 15:42:13;;;;;;;;;;;-1.90;99.90;;;-2.96;100.00;94758.78;10507056;28;2200;-66
2022/12/11 15:47:16;;;;;;;;;;;-1.80;99.90;;;-2.94;100.00;94759.34;10502905;28;2701;-66
2022/12/11 15:52:19;;;;;;;;;;;-1.80;99.90;;;-3.06;100.00;94753.19;10500876;28;1990;-65
2022/12/11 15:57:21;;;;;;;;;;;-1.80;99.90;;;-3.08;100.00;94761.28;10509872;28;2989;-65
2022/12/11 16:02:25;;;;;;;;;;;-1.90;99.90;;;-3.09;100.00;94764.13;10514692;28;2626;-67
2022/12/11 16:07:28;;;;;;;;;;;-1.90;99.90;;;-3.13;100.00;94769.00;10507715;28;2594;-64
2022/12/11 16:12:31;;;;;;;;;;;-1.90;99.90;;;-3.14;100.00;94771.84;10493033;28;2616;-65
2022/12/11 16:17:34;;;;;;;;;;;-1.80;99.90;;;-3.18;100.00;94782.00;10498217;28;2615;-67
2022/12/11 16:22:37;;;;;;;;;;;-2.00;99.90;;;-3.22;100.00;94774.75;10518762;28;2569;-64
2022/12/11 16:27:40;;;;;;;;;;;-2.00;99.90;;;-3.16;100.00;94768.63;10508855;28;2582;-64
2022/12/11 16:32:43;;;;;;;;;;;-2.00;99.90;;;-3.10;100.00;94778.31;10514505;28;2713;-66
2022/12/11 16:37:45;;;;;;;;;;;-2.00;99.90;;;-3.09;100.00;94780.72;10503908;28;2618;-65
2022/12/11 16:42:58;;;;;;;;;;;-1.90;99.90;;;-3.04;100.00;94788.75;10514026;28;2005;-65
2022/12/11 16:48:01;;;;;;;;;;;-1.90;99.90;;;-3.03;100.00;94785.13;10513055;28;2626;-65
2022/12/11 16:53:03;;;;;;;;;;;-1.90;99.90;;;-3.05;100.00;94791.63;10504575;28;2664;-65
2022/12/11 16:58:06;;;;;;;;;;;-1.90;99.90;;;-2.99;100.00;94796.00;10507992;28;2697;-66
2022/12/11 17:03:09;;;;;;;;;;;-1.90;99.90;;;-3.05;100.00;94789.00;10511124;28;2824;-64
2022/12/11 17:08:12;;;;;;;;;;;-1.90;99.90;;;-3.01;100.00;94790.16;10504420;28;2267;-64
2022/12/11 17:13:15;;;;;;;;;;;-1.90;99.90;;;-3.05;100.00;94789.00;10508141;28;2888;-64
2022/12/11 17:18:17;;;;;;;;;;;-1.80;99.90;;;-3.07;100.00;94785.75;10513016;28;2873;-68
2022/12/11 17:23:20;;;;;;;;;;;-1.90;99.90;;;-3.04;100.00;94785.34;10507142;28;2855;-73
2022/12/11 17:28:23;;;;;;;;;;;-1.90;99.90;;;-3.02;100.00;94785.91;10511761;28;2833;-67
2022/12/11 17:33:26;;;;;;;;;;;-1.90;99.90;;;-3.06;100.00;94785.53;10511360;28;2956;-67
2022/12/11 17:38:28;;;;;;;;;;;-1.90;99.90;;;-2.98;100.00;94786.31;10492074;28;2816;-66
2022/12/11 17:43:31;;;;;;;;;;;-1.80;99.90;;;-2.95;100.00;94791.13;10513663;28;2810;-65
2022/12/11 17:48:38;;;;;;;;;;;-1.80;99.90;;;-3.02;100.00;94791.97;10514047;28;2323;-70
2022/12/11 17:53:41;;;;;;;;;;;-1.80;99.90;;;-3.05;100.00;94794.25;10508128;28;3233;-75
2022/12/11 17:58:43;;;;;;;;;;;-1.90;99.90;;;-3.11;100.00;94795.91;10507307;28;2375;-73
2022/12/11 18:03:46;;;;;;;;;;;-1.90;99.90;;;-3.08;100.00;94802.53;10507622;28;2924;-76
2022/12/11 18:08:49;;;;;;;;;;;-1.90;99.90;;;-3.04;100.00;94801.13;10503325;28;2880;-70
2022/12/11 18:13:51;;;;;;;;;;;-1.90;99.90;;;-2.94;100.00;94804.06;10510328;28;2784;-76
2022/12/11 18:18:55;;;;;;;;;;;-1.90;99.90;;;-3.07;100.00;94809.41;10511245;28;2901;-73
2022/12/11 18:23:58;;;;;;;;;;;-1.90;99.90;;;-3.08;100.00;94807.81;10504880;28;2877;-65
2022/12/11 18:29:00;;;;;;;;;;;-2.00;99.90;;;-3.17;100.00;94801.19;10502055;28;2817;-67
2022/12/11 18:34:04;;;;;;;;;;;-2.00;99.90;;;-3.15;100.00;94809.66;10515175;28;2360;-63
2022/12/11 18:39:07;;;;;;;;;;;-2.00;99.90;;;-3.18;100.00;94812.72;10503959;28;2848;-64
2022/12/11 18:44:10;;;;;;;;;;;-2.00;99.90;;;-3.16;100.00;94815.94;10504134;28;2908;-68
2022/12/11 18:49:14;;;;;;;;;;;-2.10;99.90;;;-3.18;100.00;94815.34;10506226;28;2860;-64
2022/12/11 18:54:17;;;;;;;;;;;-2.10;99.90;;;-3.19;100.00;94822.41;10488105;28;2313;-65
2022/12/11 18:59:20;;;;;;;;;;;-2.10;99.90;;;-3.24;100.00;94819.63;10507717;28;2854;-62
2022/12/11 19:04:23;;;;;;;;;;;-2.10;99.90;;;-3.22;100.00;94824.69;10505861;28;2209;-64
2022/12/11 19:09:26;;;;;;;;;;;-2.10;99.90;;;-3.20;100.00;94831.31;10504663;28;3271;-65
2022/12/11 19:14:34;;;;;;;;;;;-2.10;99.90;;;-3.13;100.00;94828.66;10511047;28;2851;-67
2022/12/11 19:19:37;;;;;;;;;;;-2.00;99.90;;;-3.19;100.00;94832.13;10503563;28;2845;-68
2022/12/11 19:24:39;;;;;;;;;;;-1.80;99.90;;;-3.07;100.00;94828.63;10515888;28;2863;-69
2022/12/11 19:29:42;;;;;;;;;;;-3.10;99.90;;;-3.37;100.00;94833.66;10523847;28;2949;-69
2022/12/11 19:34:45;;;;;;;;;;;-2.10;99.90;;;-3.30;100.00;94831.78;10529719;28;2916;-67
2022/12/11 19:39:49;;;;;;;;;;;-2.20;99.90;;;-3.41;100.00;94819.31;10521119;28;2983;-68
2022/12/11 19:44:54;;;;;;;;;;;-2.20;99.90;;;-3.48;100.00;94828.25;10517380;28;2962;-67
2022/12/11 19:49:57;;;;;;;;;;;-2.20;99.90;;;-3.55;100.00;94829.09;10514035;28;2982;-69
2022/12/11 19:55:00;;;;;;;;;;;-2.30;99.90;;;-3.67;100.00;94837.81;10518152;28;2290;-68
2022/12/11 20:00:03;;;;;;;;;;;-2.40;99.90;;;-3.69;100.00;94837.22;10523682;28;2888;-68
2022/12/11 20:05:07;;;;;;;;;;;-2.40;99.90;;;-3.57;100.00;94840.81;10527030;28;2893;-68
2022/12/11 20:10:10;;;;;;;;;;;-2.40;99.90;;;-3.38;100.00;94834.66;10530519;28;2890;-67
2022/12/11 20:15:15;;;;;;;;;;;-2.30;99.90;;;-3.27;100.00;94836.63;10531045;28;2915;-68
2022/12/11 20:20:18;;;;;;;;;;;-2.30;99.90;;;-3.22;100.00;94836.00;10528803;28;3041;-68
2022/12/11 20:25:21;;;;;;;;;;;-2.20;99.90;;;-3.18;100.00;94833.72;10536401;28;2920;-73
2022/12/11 20:30:24;;;;;;;;;;;-2.10;99.90;;;-3.15;100.00;94825.44;10526502;28;2286;-71
2022/12/11 20:35:27;;;;;;;;;;;-2.20;99.90;;;-3.11;100.00;94824.00;10535064;28;2986;-69
2022/12/11 20:40:30;;;;;;;;;;;-2.10;99.90;;;-3.11;100.00;94824.00;10518312;28;2892;-66
2022/12/11 20:45:33;;;;;;;;;;;-2.10;99.90;;;-3.14;100.00;94829.69;10534372;28;2959;-67
2022/12/11 20:50:35;;;;;;;;;;;-2.20;99.90;;;-3.16;100.00;94827.25;10535490;28;2999;-65
2022/12/11 20:55:38;;;;;;;;;;;-2.10;99.90;;;-3.15;100.00;94823.63;10525329;28;2990;-65
2022/12/11 21:00:41;;;;;;;;;;;-2.10;99.90;;;-3.19;100.00;94832.13;10524067;28;2996;-67
2022/12/11 21:05:44;;;;;;;;;;;-2.20;99.90;;;-3.19;100.00;94832.94;10526837;28;3368;-66
2022/12/11 21:10:46;;;;;;;;;;;-2.20;99.90;;;-3.16;100.00;94836.97;10533351;28;2327;-66
2022/12/11 21:15:51;;;;;;;;;;;-2.20;99.90;;;-3.22;100.00;94832.56;10536857;28;2892;-65
2022/12/11 21:20:54;;;;;;;;;;;-2.20;99.90;;;-3.14;100.00;94825.22;10527650;28;2959;-65
2022/12/11 21:25:57;;;;;;;;;;;-2.20;99.90;;;-3.16;100.00;94826.47;10534684;28;2394;-69
2022/12/11 21:31:00;;;;;;;;;;;-2.40;99.90;;;-3.10;100.00;94820.38;10527378;28;2857;-65
2022/12/11 21:36:02;;;;;;;;;;;-2.10;99.90;;;-3.11;100.00;94824.81;10520491;28;2312;-64
2022/12/11 21:41:05;;;;;;;;;;;-2.10;99.90;;;-3.19;100.00;94817.16;10530487;28;2912;-64
2022/12/11 21:46:08;;;;;;;;;;;-2.10;99.90;;;-3.28;100.00;94819.25;10529000;28;2324;-66
2022/12/11 21:51:11;;;;;;;;;;;-2.10;99.90;;;-3.31;100.00;94824.94;10524069;28;2332;-66
2022/12/11 21:56:14;;;;;;;;;;;-2.20;99.90;;;-3.37;100.00;94817.88;10525551;28;2825;-67
2022/12/11 22:01:17;;;;;;;;;;;-2.30;99.90;;;-3.37;100.00;94817.06;10517678;28;2908;-65
2022/12/11 22:06:20;;;;;;;;;;;-2.60;99.90;;;-3.39;100.00;94819.09;10515935;28;2856;-77
2022/12/11 22:11:23;;;;;;;;;;;-2.40;99.90;;;-3.35;100.00;94815.84;10507727;28;2959;-73
2022/12/11 22:16:26;;;;;;;;;;;-2.30;99.90;;;-3.33;100.00;94813.81;10495341;28;2777;-74
2022/12/11 22:21:29;;;;;;;;;;;-2.30;99.90;;;-3.43;100.00;94817.94;10513244;28;2924;-68
2022/12/11 22:26:31;;;;;;;;;;;-2.30;99.90;;;-3.44;100.00;94818.91;10517689;28;2322;-73
2022/12/11 22:31:35;;;;;;;;;;;-2.40;99.90;;;-3.28;100.00;94821.88;10516580;28;2916;-69
2022/12/11 22:36:38;;;;;;;;;;;-2.60;99.90;;;-3.27;100.00;94822.66;10514211;28;2268;-68
2022/12/11 22:41:42;;;;;;;;;;;-2.10;99.90;;;-3.34;100.00;94820.09;10500097;28;2923;-70
2022/12/11 22:46:44;;;;;;;;;;;-3.10;99.90;;;-3.52;100.00;94819.97;10510067;28;2902;-68
2022/12/11 22:51:52;;;;;;;;;;;-5.00;99.90;;;-3.61;100.00;94819.41;10515696;28;2900;-67
2022/12/11 22:56:54;;;;;;;;;;;-2.50;99.90;;;-3.58;100.00;94829.50;10499280;28;2999;-69
2022/12/11 23:01:57;;;;;;;;;;;-2.40;99.90;;;-3.64;100.00;94830.31;10518205;28;3273;-67
2022/12/11 23:07:00;;;;;;;;;;;-2.60;99.90;;;-3.65;100.00;94825.28;10514101;28;2865;-67